Time;durP1;ratioP1;P1;durP2;ratioP2;P2;SDS_P1;SDS_P2;PMS_P1;PMS_P2;Temp;Humidity;BMP_temperature;BMP_pressure;BME280_temperature;BME280_humidity;BME280_pressure;Samples;Min_cycle;Max_cycle;Signal;HPM_P1;HPM_P2
2022/10/19 00:02:23;;;;;;;1.30;1.20;;;25.20;68.20;;;;;;5078243;28;20438;-88
2022/10/19 00:04:49;;;;;;;1.30;1.20;;;25.20;68.20;;;;;;5077549;28;20438;-88
2022/10/19 00:07:16;;;;;;;1.60;1.50;;;25.20;68.10;;;;;;5094059;28;20476;-88
2022/10/19 00:09:43;;;;;;;1.03;0.93;;;25.20;68.30;;;;;;5097580;28;20472;-88
2022/10/19 00:12:11;;;;;;;1.13;1.03;;;25.10;68.20;;;;;;5098835;28;20443;-89
2022/10/19 00:14:38;;;;;;;1.53;1.20;;;25.20;68.10;;;;;;5097904;28;20448;-88
2022/10/19 00:17:05;;;;;;;1.30;1.20;;;25.20;68.10;;;;;;5100300;28;20453;-88
2022/10/19 00:19:32;;;;;;;1.30;1.20;;;25.20;68.00;;;;;;5097899;28;20810;-89
2022/10/19 00:21:59;;;;;;;1.20;1.10;;;25.30;68.10;;;;;;5098074;28;20462;-88
2022/10/19 00:24:26;;;;;;;1.30;1.20;;;25.10;67.90;;;;;;5098200;28;20430;-89
2022/10/19 00:26:54;;;;;;;1.30;1.20;;;25.10;67.80;;;;;;5097197;28;20438;-88
2022/10/19 00:29:23;;;;;;;1.37;1.27;;;25.10;67.80;;;;;;5097743;28;20445;-88
2022/10/19 00:31:51;;;;;;;1.00;0.90;;;25.10;67.90;;;;;;5093399;28;20477;-88
2022/10/19 00:34:18;;;;;;;1.27;1.17;;;25.10;68.00;;;;;;5078716;28;20440;-88
2022/10/19 00:36:45;;;;;;;1.40;1.30;;;25.10;67.90;;;;;;5077492;28;20473;-87
2022/10/19 00:39:14;;;;;;;1.20;1.10;;;25.10;68.00;;;;;;5076968;28;20918;-87
2022/10/19 00:41:42;;;;;;;1.17;1.07;;;25.20;68.00;;;;;;5094432;28;20816;-88
2022/10/19 00:44:47;;;;;;;1.40;1.30;;;25.10;67.80;;;;;;5098530;28;20955;-88
2022/10/19 00:47:18;;;;;;;1.20;1.10;;;25.10;67.70;;;;;;5096511;28;20848;-88
2022/10/19 00:49:46;;;;;;;1.13;1.03;;;25.10;67.80;;;;;;5096969;28;20444;-88
2022/10/19 00:52:16;;;;;;;1.80;1.20;;;25.00;67.60;;;;;;5098405;28;20471;-89
2022/10/19 00:54:45;;;;;;;1.30;1.20;;;25.10;67.60;;;;;;5097003;28;20446;-87
2022/10/19 00:57:13;;;;;;;1.23;1.13;;;25.00;67.60;;;;;;5096930;28;20467;-88
2022/10/19 00:59:41;;;;;;;1.30;1.20;;;25.10;67.70;;;;;;5095590;28;20442;-88
2022/10/19 01:02:08;;;;;;;1.23;1.13;;;25.00;67.50;;;;;;5088473;28;20447;-88
2022/10/19 01:04:38;;;;;;;1.37;1.27;;;25.00;67.60;;;;;;5076619;28;20435;-87
2022/10/19 01:07:06;;;;;;;1.20;1.10;;;25.10;67.60;;;;;;5076372;28;20467;-88
2022/10/19 01:09:33;;;;;;;1.33;1.23;;;25.00;67.50;;;;;;5076293;28;20455;-88
2022/10/19 01:12:07;;;;;;;1.50;1.40;;;25.10;67.60;;;;;;5077152;28;20435;-88
2022/10/19 01:14:43;;;;;;;1.30;1.20;;;25.10;67.50;;;;;;5076790;28;20450;-87
2022/10/19 01:17:18;;;;;;;1.57;1.47;;;25.10;67.50;;;;;;5077005;28;20448;-88
2022/10/19 01:20:07;;;;;;;1.50;1.40;;;25.00;67.50;;;;;;5075935;28;20439;-88
2022/10/19 01:22:45;;;;;;;1.20;1.00;;;25.00;67.50;;;;;;5076959;28;20441;-87
2022/10/19 01:25:22;;;;;;;1.20;1.10;;;25.00;67.50;;;;;;5076485;28;20805;-89
2022/10/19 01:28:02;;;;;;;1.20;1.10;;;25.00;67.40;;;;;;5076888;28;20837;-88
2022/10/19 01:30:42;;;;;;;1.70;1.60;;;25.00;67.40;;;;;;5085374;28;20449;-88
2022/10/19 01:33:24;;;;;;;1.20;1.10;;;25.00;67.30;;;;;;5101087;28;20472;-88
2022/10/19 01:35:58;;;;;;;1.47;1.37;;;25.00;67.30;;;;;;5097313;28;20481;-89
2022/10/19 01:38:34;;;;;;;1.10;1.00;;;25.00;67.30;;;;;;5096918;28;20438;-88
2022/10/19 01:41:13;;;;;;;1.40;1.30;;;25.00;67.30;;;;;;5094872;28;20445;-87
2022/10/19 01:43:45;;;;;;;1.23;1.13;;;25.00;67.20;;;;;;5096002;28;20438;-88
2022/10/19 01:46:19;;;;;;;1.03;0.90;;;25.00;67.10;;;;;;5095964;28;21126;-88
2022/10/19 01:48:54;;;;;;;1.20;1.10;;;25.00;67.10;;;;;;5093996;28;20492;-88
2022/10/19 01:51:27;;;;;;;1.20;1.10;;;25.10;67.10;;;;;;5095834;28;20440;-88
2022/10/19 01:53:58;;;;;;;1.37;1.27;;;25.00;67.20;;;;;;5095570;28;20438;-89
2022/10/19 01:56:27;;;;;;;1.30;1.20;;;24.90;67.20;;;;;;5094447;28;20936;-89
2022/10/19 01:58:56;;;;;;;1.20;1.10;;;25.00;67.20;;;;;;5095699;28;20446;-88
2022/10/19 02:01:27;;;;;;;1.30;1.20;;;24.90;67.10;;;;;;5095030;28;20436;-88
2022/10/19 02:03:57;;;;;;;1.40;1.30;;;25.00;67.30;;;;;;5095322;28;20782;-88
2022/10/19 02:06:24;;;;;;;1.47;1.37;;;25.00;67.20;;;;;;5095263;28;20486;-88
2022/10/19 02:08:53;;;;;;;1.33;1.23;;;24.90;67.00;;;;;;5087638;28;20481;-88
2022/10/19 02:11:21;;;;;;;1.10;1.00;;;24.90;67.00;;;;;;5075054;28;20446;-88
2022/10/19 02:13:53;;;;;;;1.50;1.40;;;24.90;67.10;;;;;;5074554;28;20445;-87
2022/10/19 02:16:24;;;;;;;1.33;1.23;;;24.90;67.00;;;;;;5074708;28;20437;-88
2022/10/19 02:18:53;;;;;;;1.20;1.10;;;24.90;67.00;;;;;;5075003;28;20432;-88
2022/10/19 02:21:20;;;;;;;1.10;1.00;;;25.10;67.20;;;;;;5074930;28;20439;-88
2022/10/19 02:23:47;;;;;;;1.10;1.00;;;24.90;67.00;;;;;;5075281;28;20435;-88
2022/10/19 02:26:14;;;;;;;1.20;1.10;;;24.90;67.10;;;;;;5073664;28;20438;-89
2022/10/19 02:28:41;;;;;;;1.53;1.00;;;24.90;67.00;;;;;;5073249;28;20486;-88
2022/10/19 02:31:08;;;;;;;1.00;0.90;;;24.90;67.00;;;;;;5091402;28;20481;-88
2022/10/19 02:33:37;;;;;;;1.10;1.00;;;24.90;67.00;;;;;;5094873;28;20437;-88
2022/10/19 02:36:04;;;;;;;1.37;1.27;;;24.90;66.90;;;;;;5094751;28;20467;-88
2022/10/19 02:38:31;;;;;;;1.40;1.23;;;24.90;67.00;;;;;;5095005;28;20446;-88
2022/10/19 02:41:05;;;;;;;1.30;1.20;;;24.90;66.90;;;;;;5094688;28;20536;-88
2022/10/19 02:43:35;;;;;;;1.20;1.10;;;24.90;67.00;;;;;;5094891;28;20806;-87
2022/10/19 02:46:07;;;;;;;1.30;1.20;;;24.80;66.70;;;;;;5093288;28;20442;-88
2022/10/19 02:48:37;;;;;;;1.10;1.00;;;24.90;66.70;;;;;;5094990;28;20814;-87
2022/10/19 02:51:06;;;;;;;1.17;1.07;;;24.90;66.80;;;;;;5094676;28;20445;-88
2022/10/19 02:53:32;;;;;;;1.10;0.97;;;25.00;66.80;;;;;;5094482;28;20482;-88
2022/10/19 02:55:59;;;;;;;1.27;1.17;;;24.80;66.70;;;;;;5094521;28;20437;-87
2022/10/19 02:58:26;;;;;;;1.07;0.97;;;24.90;66.80;;;;;;5094403;28;20434;-88
2022/10/19 03:00:53;;;;;;;1.10;1.00;;;24.80;66.80;;;;;;5080528;28;20443;-88
2022/10/19 03:03:20;;;;;;;1.30;1.20;;;24.80;66.70;;;;;;5074339;28;20436;-88
2022/10/19 03:05:46;;;;;;;1.20;1.10;;;24.80;66.60;;;;;;5074165;28;20454;-88
2022/10/19 03:08:14;;;;;;;1.17;1.07;;;24.90;66.70;;;;;;5078779;28;20479;-87
2022/10/19 03:10:41;;;;;;;1.00;0.90;;;24.80;66.70;;;;;;5093493;28;20889;-88
2022/10/19 03:13:08;;;;;;;1.27;1.17;;;24.80;66.70;;;;;;5094446;28;20438;-88
2022/10/19 03:15:35;;;;;;;1.20;1.10;;;24.80;66.60;;;;;;5094425;28;20451;-88
2022/10/19 03:18:02;;;;;;;1.10;1.00;;;24.80;66.80;;;;;;5094490;28;20442;-88
2022/10/19 03:20:28;;;;;;;1.57;1.10;;;24.80;66.70;;;;;;5094433;28;20452;-88
2022/10/19 03:22:55;;;;;;;1.10;1.00;;;24.80;66.70;;;;;;5094050;28;20445;-87
2022/10/19 03:25:23;;;;;;;1.20;1.10;;;24.80;66.70;;;;;;5093691;28;20438;-88
2022/10/19 03:27:50;;;;;;;1.10;1.00;;;24.80;66.60;;;;;;5094148;28;20789;-87
2022/10/19 03:30:17;;;;;;;1.20;1.10;;;24.80;66.60;;;;;;5085482;28;20450;-88
2022/10/19 03:32:44;;;;;;;1.17;1.00;;;24.80;66.60;;;;;;5073651;28;20476;-87
2022/10/19 03:35:10;;;;;;;1.30;1.20;;;24.80;66.70;;;;;;5073962;28;20447;-88
2022/10/19 03:37:37;;;;;;;1.20;1.10;;;24.80;66.50;;;;;;5073678;28;20437;-88
2022/10/19 03:40:05;;;;;;;1.37;1.27;;;24.80;66.60;;;;;;5074044;28;20442;-87
2022/10/19 03:42:34;;;;;;;1.00;0.90;;;24.80;66.60;;;;;;5072605;28;20453;-88
2022/10/19 03:45:00;;;;;;;1.10;1.00;;;24.80;66.70;;;;;;5073764;28;20442;-88
2022/10/19 03:47:27;;;;;;;1.33;1.17;;;24.90;66.80;;;;;;5073894;28;20793;-88
2022/10/19 03:49:54;;;;;;;1.20;1.10;;;24.80;66.60;;;;;;5074187;28;20486;-89
2022/10/19 03:52:21;;;;;;;1.20;1.03;;;24.80;66.70;;;;;;5073622;28;20788;-88
2022/10/19 03:54:50;;;;;;;1.20;1.10;;;24.80;66.70;;;;;;5073763;28;20447;-88
2022/10/19 03:57:17;;;;;;;1.00;0.90;;;24.80;66.80;;;;;;5073479;28;20442;-88
2022/10/19 03:59:45;;;;;;;1.20;1.10;;;24.70;66.60;;;;;;5073713;28;20537;-88
2022/10/19 04:02:14;;;;;;;1.20;1.10;;;24.70;66.50;;;;;;5073579;28;20444;-88
2022/10/19 04:04:41;;;;;;;1.00;0.90;;;24.90;66.70;;;;;;5074140;28;20430;-88
2022/10/19 04:07:08;;;;;;;1.27;1.10;;;24.80;66.60;;;;;;5073749;28;20458;-88
2022/10/19 04:09:34;;;;;;;1.13;1.03;;;24.70;66.50;;;;;;5079429;28;20481;-88
2022/10/19 04:12:01;;;;;;;1.27;1.17;;;24.70;67.40;;;;;;5093978;28;20454;-87
2022/10/19 04:14:28;;;;;;;1.40;1.30;;;24.70;66.60;;;;;;5083630;28;20947;-88
2022/10/19 04:16:56;;;;;;;1.40;1.30;;;24.70;66.50;;;;;;5091567;28;20432;-88
2022/10/19 04:19:23;;;;;;;1.00;0.90;;;24.70;66.50;;;;;;5096455;28;20525;-89
2022/10/19 04:21:50;;;;;;;1.23;1.13;;;24.70;66.50;;;;;;5094555;28;20441;-87
2022/10/19 04:24:18;;;;;;;1.20;1.10;;;24.70;66.60;;;;;;5093292;28;20440;-87
2022/10/19 04:26:47;;;;;;;1.10;1.00;;;24.70;66.50;;;;;;5088040;28;20434;-88
2022/10/19 04:29:14;;;;;;;1.10;1.00;;;24.70;66.50;;;;;;5084412;28;20485;-88
2022/10/19 04:31:41;;;;;;;1.20;1.10;;;24.70;66.50;;;;;;5083962;28;20478;-88
2022/10/19 04:34:09;;;;;;;1.00;0.90;;;24.70;66.50;;;;;;5071711;28;20439;-88
2022/10/19 04:36:37;;;;;;;1.10;1.00;;;24.70;66.40;;;;;;5089639;28;20462;-88
2022/10/19 04:39:04;;;;;;;1.10;1.00;;;24.70;66.60;;;;;;5088601;28;20820;-87
2022/10/19 04:41:32;;;;;;;1.20;1.10;;;24.70;66.50;;;;;;5085293;28;20544;-88
2022/10/19 04:44:01;;;;;;;1.30;1.20;;;24.80;66.60;;;;;;5083671;28;20465;-87
2022/10/19 04:46:29;;;;;;;1.20;1.10;;;24.70;66.40;;;;;;5085900;28;20441;-87
2022/10/19 04:48:57;;;;;;;1.00;0.90;;;24.70;66.50;;;;;;5086007;28;20856;-87
2022/10/19 04:51:26;;;;;;;1.13;1.03;;;24.70;66.50;;;;;;5086311;28;20450;-87
2022/10/19 04:53:55;;;;;;;1.20;1.10;;;24.70;66.30;;;;;;5086358;28;20423;-88
2022/10/19 04:56:25;;;;;;;1.00;0.90;;;24.70;66.50;;;;;;5082839;28;20466;-87
2022/10/19 04:58:55;;;;;;;1.00;0.90;;;24.70;66.50;;;;;;5086973;28;20439;-87
2022/10/19 05:01:22;;;;;;;1.20;1.10;;;24.70;66.40;;;;;;5086307;28;20787;-87
2022/10/19 05:03:54;;;;;;;1.00;0.90;;;24.70;66.50;;;;;;5107115;28;20442;-87
2022/10/19 05:06:20;;;;;;;1.07;0.97;;;24.70;66.40;;;;;;5110172;28;20446;-88
2022/10/19 05:08:50;;;;;;;1.17;1.07;;;24.70;66.40;;;;;;5110623;28;20516;-88
2022/10/19 05:11:17;;;;;;;1.23;1.13;;;24.60;66.10;;;;;;5090035;28;20434;-87
2022/10/19 05:13:44;;;;;;;1.50;1.40;;;24.70;66.30;;;;;;5085862;28;20921;-87
2022/10/19 05:16:13;;;;;;;1.07;0.90;;;24.70;66.40;;;;;;5079123;28;20448;-87
2022/10/19 05:18:40;;;;;;;1.40;1.23;;;24.70;66.40;;;;;;5075725;28;21011;-87
2022/10/19 05:21:09;;;;;;;1.10;1.00;;;24.60;66.20;;;;;;5075873;28;20990;-88
2022/10/19 05:23:36;;;;;;;1.17;1.07;;;24.70;66.40;;;;;;5075725;28;20434;-87
2022/10/19 05:26:06;;;;;;;1.33;1.23;;;24.70;66.30;;;;;;5075985;28;20525;-87
2022/10/19 05:28:33;;;;;;;0.80;0.73;;;24.70;66.40;;;;;;5076376;28;20435;-86
2022/10/19 05:31:08;;;;;;;1.23;1.13;;;24.60;66.20;;;;;;5095823;28;20492;-87
2022/10/19 05:33:35;;;;;;;1.03;0.93;;;24.60;66.20;;;;;;5095934;28;20448;-88
2022/10/19 05:36:12;;;;;;;1.40;0.90;;;24.60;66.20;;;;;;5094533;28;20467;-87
2022/10/19 05:38:39;;;;;;;1.20;1.10;;;24.70;66.30;;;;;;5096367;28;20440;-87
2022/10/19 05:41:07;;;;;;;1.20;1.10;;;24.60;66.20;;;;;;5096075;28;20445;-87
2022/10/19 05:43:34;;;;;;;1.20;1.10;;;24.60;66.20;;;;;;5096038;28;20444;-87
2022/10/19 05:46:04;;;;;;;1.03;0.93;;;24.60;66.20;;;;;;5095815;28;20453;-88
2022/10/19 05:48:32;;;;;;;1.40;1.30;;;24.60;66.20;;;;;;5095530;28;20444;-88
2022/10/19 05:51:00;;;;;;;1.10;1.00;;;24.60;66.10;;;;;;5095812;28;20446;-87
2022/10/19 05:53:28;;;;;;;1.23;1.13;;;24.60;66.10;;;;;;5081147;28;20621;-88
2022/10/19 05:55:54;;;;;;;1.20;1.10;;;24.80;66.40;;;;;;5075726;28;20523;-86
2022/10/19 05:58:23;;;;;;;1.40;1.30;;;24.60;66.10;;;;;;5083824;28;20449;-87
2022/10/19 06:00:54;;;;;;;1.47;1.37;;;24.60;66.00;;;;;;5095616;28;20449;-87
2022/10/19 06:03:21;;;;;;;1.20;1.10;;;24.60;66.20;;;;;;5095593;28;20437;-88
2022/10/19 06:05:49;;;;;;;1.37;1.27;;;24.80;66.30;;;;;;5095448;28;20469;-87
2022/10/19 06:08:16;;;;;;;1.20;1.10;;;24.60;66.20;;;;;;5095259;28;20822;-88
2022/10/19 06:10:43;;;;;;;1.10;1.00;;;24.70;66.30;;;;;;5095075;28;20493;-87
2022/10/19 06:13:11;;;;;;;1.53;1.43;;;24.60;66.30;;;;;;5095235;28;20461;-87
2022/10/19 06:15:40;;;;;;;1.30;1.20;;;24.60;66.40;;;;;;5095195;28;20440;-87
2022/10/19 06:18:07;;;;;;;1.60;1.40;;;24.60;66.50;;;;;;5095262;28;20445;-86
2022/10/19 06:20:35;;;;;;;1.10;1.00;;;24.60;66.50;;;;;;5095655;28;20445;-88
2022/10/19 06:23:02;;;;;;;1.37;1.27;;;24.60;66.60;;;;;;5095537;28;20450;-87
2022/10/19 06:25:30;;;;;;;1.57;1.47;;;24.60;66.60;;;;;;5095203;28;20438;-86
2022/10/19 06:27:57;;;;;;;1.30;1.20;;;24.60;66.50;;;;;;5094004;28;20454;-87
2022/10/19 06:30:24;;;;;;;1.30;1.20;;;24.60;66.90;;;;;;5093676;28;20477;-87
2022/10/19 06:32:52;;;;;;;1.10;1.00;;;24.60;67.00;;;;;;5094914;28;20482;-87
2022/10/19 06:35:19;;;;;;;1.50;1.40;;;24.60;66.90;;;;;;5095752;28;20471;-87
2022/10/19 06:37:46;;;;;;;1.70;1.60;;;24.60;67.00;;;;;;5095189;28;20436;-87
2022/10/19 06:40:13;;;;;;;1.33;1.23;;;24.80;67.30;;;;;;5095474;28;20446;-87
2022/10/19 06:42:41;;;;;;;1.10;1.00;;;24.60;67.00;;;;;;5094816;28;20459;-87
2022/10/19 06:45:09;;;;;;;1.30;1.20;;;24.60;67.00;;;;;;5095175;28;20468;-87
2022/10/19 06:47:37;;;;;;;1.47;1.37;;;24.60;67.90;;;;;;5093769;28;20438;-87
2022/10/19 06:50:06;;;;;;;1.30;1.20;;;24.60;67.00;;;;;;5094773;28;20483;-87
2022/10/19 06:52:33;;;;;;;1.20;1.10;;;24.60;67.10;;;;;;5094710;28;20436;-87
2022/10/19 06:55:01;;;;;;;1.97;1.30;;;24.60;67.10;;;;;;5095511;28;20454;-87
2022/10/19 06:57:28;;;;;;;1.20;1.10;;;24.60;67.00;;;;;;5095007;28;20432;-87
2022/10/19 06:59:54;;;;;;;1.53;1.43;;;24.60;67.10;;;;;;5094564;28;20440;-87
2022/10/19 07:02:21;;;;;;;1.33;1.23;;;24.60;67.10;;;;;;5094531;28;20761;-87
2022/10/19 07:04:48;;;;;;;1.30;1.20;;;24.60;67.10;;;;;;5094591;28;20806;-86
2022/10/19 07:07:20;;;;;;;1.73;1.63;;;24.60;67.00;;;;;;5088327;28;20480;-88
2022/10/19 07:09:48;;;;;;;2.80;1.10;;;24.70;67.30;;;;;;5078628;28;20486;-90
2022/10/19 07:12:14;;;;;;;3.50;1.40;;;24.60;67.20;;;;;;5084090;28;20442;-90
2022/10/19 07:14:41;;;;;;;1.87;1.30;;;24.60;67.30;;;;;;5088074;28;20433;-90
2022/10/19 07:17:10;;;;;;;1.40;1.30;;;24.60;67.10;;;;;;5093859;28;20451;-89
2022/10/19 07:19:37;;;;;;;1.83;1.40;;;24.60;67.30;;;;;;5093791;28;20448;-90
2022/10/19 07:22:04;;;;;;;1.93;1.70;;;24.70;67.30;;;;;;5091194;28;20452;-90
2022/10/19 07:24:37;;;;;;;1.10;1.00;;;24.60;67.00;;;;;;5090843;28;20458;-90
2022/10/19 07:27:04;;;;;;;1.50;1.40;;;24.60;66.90;;;;;;5080351;28;20948;-90
2022/10/19 07:29:31;;;;;;;1.20;1.10;;;24.60;66.90;;;;;;5091835;28;20473;-88
2022/10/19 07:31:57;;;;;;;1.70;1.60;;;24.60;66.90;;;;;;5073428;28;20481;-86
2022/10/19 07:34:24;;;;;;;1.20;1.10;;;24.70;66.90;;;;;;5073410;28;20441;-90
2022/10/19 07:36:51;;;;;;;1.40;1.27;;;24.60;66.80;;;;;;5074488;28;20460;-91
2022/10/19 07:39:18;;;;;;;1.53;1.43;;;24.60;66.90;;;;;;5074164;28;20550;-93
2022/10/19 07:41:46;;;;;;;1.80;1.70;;;24.60;66.60;;;;;;5074417;28;20469;-93
2022/10/19 07:44:14;;;;;;;1.53;1.37;;;24.70;66.70;;;;;;5074166;28;20450;-92
2022/10/19 07:46:41;;;;;;;1.30;1.20;;;24.70;66.70;;;;;;5074161;28;21005;-89
2022/10/19 07:49:17;;;;;;;3.20;1.90;;;24.70;66.70;;;;;;5076387;28;20453;-96
2022/10/19 07:51:45;;;;;;;1.17;1.07;;;24.70;66.60;;;;;;5075483;28;20436;-92
2022/10/19 07:54:12;;;;;;;1.43;1.33;;;24.70;66.60;;;;;;5073988;28;20462;-90
2022/10/19 07:56:39;;;;;;;10.00;1.80;;;24.70;66.50;;;;;;5083625;28;20927;-91
2022/10/19 07:59:07;;;;;;;2.07;1.87;;;24.70;66.50;;;;;;5093772;28;20460;-88
2022/10/19 08:01:39;;;;;;;1.50;1.40;;;24.80;66.20;;;;;;5093731;28;20468;-93
2022/10/19 08:04:07;;;;;;;1.73;1.50;;;24.80;66.20;;;;;;5085804;28;20442;-90
2022/10/19 08:06:35;;;;;;;2.43;1.30;;;24.80;66.00;;;;;;5079003;28;20959;-90
2022/10/19 08:09:02;;;;;;;1.30;1.20;;;24.80;65.80;;;;;;5087440;28;20448;-90
2022/10/19 08:11:31;;;;;;;1.50;1.30;;;24.80;65.50;;;;;;5081630;28;20498;-88
2022/10/19 08:13:58;;;;;;;1.33;1.10;;;24.90;65.60;;;;;;5088541;28;20497;-92
2022/10/19 08:16:29;;;;;;;1.27;1.17;;;25.00;65.60;;;;;;5094595;28;20545;-90
2022/10/19 08:18:58;;;;;;;2.70;1.20;;;25.00;65.40;;;;;;5083095;28;20429;-89
2022/10/19 08:21:27;;;;;;;1.30;1.10;;;25.10;65.40;;;;;;5078198;28;20443;-89
2022/10/19 08:23:54;;;;;;;1.47;1.30;;;25.20;65.30;;;;;;5085362;28;20472;-93
2022/10/19 08:26:21;;;;;;;5.90;1.63;;;25.30;65.40;;;;;;5093364;28;20961;-90
2022/10/19 08:28:48;;;;;;;1.47;1.37;;;25.40;65.50;;;;;;5087890;28;20436;-90
2022/10/19 08:31:17;;;;;;;1.50;1.40;;;25.50;65.40;;;;;;5077327;28;20584;-90
2022/10/19 08:33:46;;;;;;;1.40;1.27;;;25.70;65.30;;;;;;5080613;28;20448;-90
2022/10/19 08:36:13;;;;;;;5.00;1.40;;;25.80;65.20;;;;;;5077079;28;20986;-91
2022/10/19 08:38:43;;;;;;;1.40;1.30;;;25.90;65.00;;;;;;5083653;28;20474;-91
2022/10/19 08:41:21;;;;;;;3.03;1.30;;;26.00;64.70;;;;;;5097037;28;20996;-92
2022/10/19 08:44:22;;;;;;;1.40;1.30;;;26.40;64.70;;;;;;5097718;28;20435;-93
2022/10/19 08:46:58;;;;;;;1.43;1.33;;;26.40;64.30;;;;;;5096264;28;20949;-88
2022/10/19 08:49:28;;;;;;;1.80;1.17;;;26.50;64.20;;;;;;5096547;28;20447;-88
2022/10/19 08:51:58;;;;;;;1.53;1.43;;;26.70;63.80;;;;;;5081258;28;20437;-87
2022/10/19 08:54:35;;;;;;;2.00;1.37;;;26.80;63.60;;;;;;5076375;28;20441;-88
2022/10/19 08:57:23;;;;;;;1.63;1.40;;;27.10;63.20;;;;;;5076151;28;20437;-90
2022/10/19 08:59:54;;;;;;;1.47;1.30;;;27.30;62.70;;;;;;5076258;28;20445;-90
2022/10/19 09:02:41;;;;;;;1.43;1.33;;;27.40;62.50;;;;;;5076090;28;20440;-89
2022/10/19 09:05:17;;;;;;;1.70;1.60;;;27.60;62.10;;;;;;5076774;28;20482;-94
2022/10/19 09:07:46;;;;;;;1.60;1.50;;;27.60;61.80;;;;;;5077117;28;20431;-95
2022/10/19 09:10:23;;;;;;;1.70;1.60;;;27.60;61.90;;;;;;5076610;28;20846;-92
2022/10/19 09:12:56;;;;;;;1.77;1.50;;;27.50;62.10;;;;;;5083228;28;20449;-92
2022/10/19 09:15:27;;;;;;;1.67;1.50;;;27.50;62.50;;;;;;5096600;28;20440;-92
2022/10/19 09:17:54;;;;;;;2.20;1.37;;;27.50;62.50;;;;;;5096414;28;20437;-93
2022/10/19 09:20:26;;;;;;;1.40;1.30;;;27.70;62.30;;;;;;5097462;28;20804;-90
2022/10/19 09:23:03;;;;;;;1.40;1.30;;;28.00;61.90;;;;;;5086780;28;20436;-95
2022/10/19 09:25:31;;;;;;;1.90;1.07;;;28.20;61.20;;;;;;5076576;28;20444;-93
2022/10/19 09:28:06;;;;;;;1.70;1.43;;;28.40;61.70;;;;;;5076033;28;20463;-93
2022/10/19 09:30:51;;;;;;;1.50;1.40;;;28.70;60.20;;;;;;5080229;28;20485;-94
2022/10/19 09:33:26;;;;;;;1.77;1.57;;;28.90;59.90;;;;;;5075706;28;20931;-91
2022/10/19 09:35:56;;;;;;;2.90;1.40;;;29.20;59.30;;;;;;5075865;28;20470;-95
2022/10/19 09:38:26;;;;;;;1.27;1.17;;;29.40;58.80;;;;;;5077308;28;20540;-90
2022/10/19 09:41:14;;;;;;;3.37;1.60;;;29.60;58.70;;;;;;5075362;28;20963;-89
2022/10/19 09:43:49;;;;;;;2.43;1.87;;;29.80;58.50;;;;;;5075372;28;20452;-89
2022/10/19 09:46:27;;;;;;;1.60;1.30;;;29.90;59.00;;;;;;5075787;28;20484;-88
2022/10/19 09:48:54;;;;;;;2.30;1.67;;;30.10;58.30;;;;;;5076494;28;20437;-88
2022/10/19 09:51:23;;;;;;;1.40;1.30;;;30.30;58.20;;;;;;5075041;28;21006;-88
2022/10/19 09:53:52;;;;;;;1.43;1.33;;;30.40;58.00;;;;;;5075385;28;20443;-88
2022/10/19 09:56:21;;;;;;;1.77;1.50;;;30.60;57.90;;;;;;5075156;28;20827;-88
2022/10/19 09:58:50;;;;;;;1.93;1.83;;;30.90;57.60;;;;;;5073995;28;20454;-89
2022/10/19 10:01:31;;;;;;;1.77;1.67;;;31.10;57.40;;;;;;5074934;28;20452;-88
2022/10/19 10:04:05;;;;;;;2.60;1.80;;;31.30;57.20;;;;;;5084891;28;20549;-93
2022/10/19 10:06:35;;;;;;;2.47;2.10;;;31.30;57.00;;;;;;5100681;28;20507;-94
2022/10/19 10:16:48;;;;;;;2.20;1.80;;;31.50;55.40;;;;;;1483045;25;20474;-87
2022/10/19 10:19:17;;;;;;;2.83;1.40;;;31.10;55.60;;;;;;5135571;27;20942;-90
2022/10/19 10:21:51;;;;;;;2.43;1.40;;;30.70;55.90;;;;;;5135401;27;20522;-88
2022/10/19 10:24:20;;;;;;;1.30;1.20;;;30.40;56.10;;;;;;5135729;27;20854;-90
2022/10/19 10:26:48;;;;;;;2.23;1.50;;;30.00;57.20;;;;;;5135664;27;20454;-88
2022/10/19 10:29:21;;;;;;;1.20;1.10;;;29.80;58.10;;;;;;5135913;27;20451;-89
2022/10/19 10:31:50;;;;;;;2.23;1.50;;;29.50;58.60;;;;;;5135602;27;20446;-89
2022/10/19 10:34:26;;;;;;;1.73;1.30;;;29.30;59.20;;;;;;5135486;27;20460;-89
2022/10/19 10:36:56;;;;;;;1.70;1.60;;;29.10;59.60;;;;;;5135587;27;20434;-90
2022/10/19 10:39:25;;;;;;;1.60;1.50;;;28.90;60.00;;;;;;5134608;27;20450;-89
2022/10/19 10:41:53;;;;;;;1.40;1.30;;;28.70;60.50;;;;;;5118082;27;20483;-89
2022/10/19 10:44:25;;;;;;;2.23;1.53;;;28.60;61.00;;;;;;5135935;27;20441;-89
2022/10/19 10:46:55;;;;;;;3.40;1.90;;;28.50;61.40;;;;;;5135103;27;20449;-89
2022/10/19 10:49:25;;;;;;;1.50;1.40;;;28.30;61.70;;;;;;5133453;27;20445;-90
2022/10/19 10:51:56;;;;;;;4.03;1.53;;;28.20;62.10;;;;;;5134967;27;20443;-89
2022/10/19 10:54:25;;;;;;;1.90;1.17;;;28.20;62.40;;;;;;5124916;27;20448;-86
2022/10/19 10:57:05;;;;;;;2.30;1.37;;;28.00;61.40;;;;;;5114209;28;20442;-86
2022/10/19 10:59:38;;;;;;;1.37;1.17;;;27.90;59.90;;;;;;5109255;27;20438;-87
2022/10/19 11:02:17;;;;;;;3.87;1.00;;;27.70;60.00;;;;;;5132909;27;20484;-87
2022/10/19 11:04:51;;;;;;;1.00;0.90;;;27.60;59.90;;;;;;5135109;27;20458;-86
2022/10/19 11:07:22;;;;;;;2.03;1.20;;;27.50;60.00;;;;;;5135093;27;20450;-87
2022/10/19 11:09:54;;;;;;;1.80;1.13;;;27.50;60.40;;;;;;5134643;27;20443;-87
2022/10/19 11:12:32;;;;;;;2.40;1.40;;;27.40;61.10;;;;;;5134646;27;20440;-87
2022/10/19 11:15:06;;;;;;;1.90;1.00;;;27.30;61.20;;;;;;5092506;28;20440;-87
2022/10/19 11:17:37;;;;;;;1.50;1.00;;;27.30;60.80;;;;;;5093515;28;20474;-87
2022/10/19 11:20:07;;;;;;;1.10;1.00;;;27.20;60.80;;;;;;5102003;27;20443;-86
2022/10/19 11:22:42;;;;;;;1.20;1.10;;;27.20;61.00;;;;;;5121749;27;20474;-94
2022/10/19 11:25:24;;;;;;;3.40;1.30;;;27.10;62.00;;;;;;5114510;28;20449;-91
2022/10/19 11:28:01;;;;;;;3.93;1.27;;;27.20;63.10;;;;;;5114367;28;20439;-90
2022/10/19 11:30:31;;;;;;;2.03;1.20;;;27.20;63.10;;;;;;5112964;28;20478;-90
2022/10/19 11:33:04;;;;;;;1.20;1.00;;;27.20;63.20;;;;;;5113978;28;20444;-89
2022/10/19 11:35:39;;;;;;;1.63;1.20;;;27.20;63.30;;;;;;5114354;28;20463;-90
2022/10/19 11:41:09;;;;;;;1.13;1.00;;;27.20;63.40;;;;;;5148349;27;20356;-90
2022/10/19 11:43:42;;;;;;;2.60;1.20;;;27.20;63.80;;;;;;5131720;28;20813;-88
2022/10/19 11:46:19;;;;;;;2.33;1.30;;;27.20;63.90;;;;;;5131707;28;20453;-90
2022/10/19 11:49:05;;;;;;;8.07;1.27;;;27.20;64.10;;;;;;5132003;27;20442;-90
2022/10/19 11:51:38;;;;;;;3.53;1.10;;;27.20;64.10;;;;;;5132035;27;20925;-90
2022/10/19 11:54:19;;;;;;;1.43;1.10;;;27.30;64.40;;;;;;5130626;28;20435;-90
2022/10/19 11:56:54;;;;;;;2.33;1.07;;;27.20;64.30;;;;;;5131417;27;20447;-90
2022/10/19 11:59:31;;;;;;;1.10;1.00;;;27.20;64.40;;;;;;5130460;28;20482;-89
2022/10/19 12:02:11;;;;;;;1.40;1.30;;;27.20;64.60;;;;;;5131633;28;20445;-89
2022/10/19 12:04:52;;;;;;;1.00;0.90;;;27.20;64.60;;;;;;5130237;28;20473;-90
2022/10/19 12:07:33;;;;;;;1.27;1.17;;;27.20;64.60;;;;;;5129483;28;20435;-88
2022/10/19 12:10:08;;;;;;;3.27;1.30;;;27.20;64.80;;;;;;5131473;28;20964;-89
2022/10/19 12:12:40;;;;;;;1.60;1.00;;;27.20;64.80;;;;;;5131102;28;20939;-88
2022/10/19 12:15:22;;;;;;;1.30;1.10;;;27.20;64.80;;;;;;5131438;28;20446;-89
2022/10/19 12:17:52;;;;;;;2.00;1.10;;;27.20;64.90;;;;;;5131198;28;20450;-89
2022/10/19 12:20:25;;;;;;;1.13;1.00;;;27.20;65.00;;;;;;5113830;28;20505;-89
2022/10/19 12:22:53;;;;;;;2.70;1.00;;;27.20;65.10;;;;;;5110249;28;20440;-89
2022/10/19 12:25:20;;;;;;;1.10;0.90;;;27.20;65.10;;;;;;5110378;28;20809;-88
2022/10/19 12:27:50;;;;;;;2.20;1.27;;;27.20;65.20;;;;;;5110070;28;20447;-87
2022/10/19 12:30:19;;;;;;;1.40;1.20;;;27.30;65.30;;;;;;5109932;28;20568;-87
2022/10/19 12:33:00;;;;;;;2.17;1.00;;;27.30;65.30;;;;;;5110075;28;20798;-87
2022/10/19 12:35:45;;;;;;;1.37;1.00;;;27.30;65.40;;;;;;5109964;28;20461;-88
2022/10/19 12:38:16;;;;;;;2.30;1.27;;;27.30;65.60;;;;;;5110062;28;20447;-88
2022/10/19 12:40:47;;;;;;;2.23;1.17;;;27.30;65.50;;;;;;5109917;28;20490;-88
2022/10/19 12:43:20;;;;;;;1.20;0.90;;;27.30;65.60;;;;;;5110266;28;20440;-87
2022/10/19 12:45:53;;;;;;;1.00;0.90;;;27.30;65.60;;;;;;5110086;28;20986;-87
2022/10/19 12:48:23;;;;;;;3.57;1.00;;;27.30;65.70;;;;;;5110061;28;20432;-88
2022/10/19 12:51:12;;;;;;;1.97;1.13;;;27.30;65.70;;;;;;5104704;28;20432;-88
2022/10/19 12:53:41;;;;;;;1.67;1.00;;;27.30;65.70;;;;;;5096338;28;20445;-88
2022/10/19 12:56:12;;;;;;;3.93;1.30;;;27.20;65.80;;;;;;5094950;28;20444;-88
2022/10/19 12:58:48;;;;;;;1.63;0.93;;;27.20;65.80;;;;;;5096144;28;20436;-88
2022/10/19 13:01:19;;;;;;;1.87;1.00;;;27.30;65.80;;;;;;5096374;28;20482;-87
2022/10/19 13:03:48;;;;;;;1.33;0.90;;;27.30;65.80;;;;;;5078051;28;20444;-88
2022/10/19 13:06:19;;;;;;;1.40;0.90;;;27.30;65.80;;;;;;5095931;28;20449;-88
2022/10/19 13:08:53;;;;;;;1.20;0.90;;;27.30;65.70;;;;;;5096089;28;20445;-88
2022/10/19 13:11:21;;;;;;;1.20;0.90;;;27.30;65.70;;;;;;5096372;28;20444;-89
2022/10/19 13:13:59;;;;;;;1.00;0.87;;;27.20;65.80;;;;;;5094989;28;20444;-90
2022/10/19 13:17:01;;;;;;;1.97;1.00;;;27.20;65.70;;;;;;5095785;28;20534;-93